Hubbell, Michigan
Current Conditions -  °F | °C
As of 5:53 AM on Friday 24 Oct 2014 (Local Time) from KCMX Reporting Station
Moderate Fog Moderate Fog  
Wind Chill:   Ceiling: 100
Heat Index:   Visibility: 0.25mi
Dew Point:   Wind: 5mph
Humidity: 97%   Direction: 180°S
Pressure: 29.94"   Gusts: NA
Location:  47.17°N, 88.43°W
Report Text: KCMX 240953Z AUTO 18004KT 1/4SM FG VV001 07/07 A2994 RMK AO2 SLP147 T00720067
Loading
Personal Weather Stations






























Interactive Weather Map
Tropical Storm Tracking
New forecast layout! Learn more

10-Day Weather Forecast

Advertisements
Track Severe Weather on mobile